KOSH/OSH METAR and TAF weather

Enter ICAO airport designator
Station Type Date Time Source
KOSH METAR 2019/11/18 10:53 UTC NOAA

KOSH 181053Z AUTO 00000KT 2 1/2SM BR BKN009 OVC030 01/01 A2977 RMK AO2 SLP093 T00110006


Station Type Date Time Source
KOSH Decoded METAR 2019/11/18 10:53 UTC NOAA

WITTMAN REGIONAL AIRPORT, WI, United States (KOSH) 43-58N 88-33W 248M
Nov 18, 2019 - 05:53 AM EST / 2019.11.18 1053 UTC
Wind: Calm:0
Visibility: 2 1/2 mile(s):0
Sky conditions: overcast
Weather: mist
Temperature: 34.0 F (1.1 C)
Dew Point: 33.1 F (0.6 C)
Relative Humidity: 96%
Pressure (altimeter): 29.77 in. Hg (1008 hPa)
ob: KOSH 181053Z AUTO 00000KT 2 1/2SM BR BKN009 OVC030 01/01 A2977 RMK AO2 SLP093 T00110006
cycle: 11

Station Type Date Time Source
KOSH TAF 2019/07/30 12:39 UTC NOAA

TAF KOSH 301136Z 3012/3112 36006KT P6SM BKN050
TEMPO 3015/3017 BKN025
FM301700 01006KT P6SM BKN035
FM302200 04005KT P6SM SCT045
FM310200 11003KT P6SM SKC
FM310900 VRB03KT 6SM BR SKC

Example: see airport list